Terminal Aerodrome Forecast
Issued by NWS

Home | Current Version | Previous Version | Text Only | Print | Product List | Glossary On
Versions: 1 2 3 4 5 6 7 8 9 10 11 12 13 14 15 16 17 18
000
FTUS45 KTFX 191700
TAFCTB
TAF
KCTB 191730Z 1918/2018 24016G24KT P6SM SCT100 BKN200
     FM200400 26012G20KT P6SM BKN100
     FM200800 26030G40KT P6SM SKC
     FM201400 26040G50KT P6SM FEW200=

USA.gov is the U.S. government's official web portal to all federal, state and local government web resources and services.